sensor_id;sensor_type;location;lat;lon;timestamp;temperature;humidity
15844;DHT22;50807;52.436;13.346;2022-09-03T00:00:12;18.50;55.60
15844;DHT22;50807;52.436;13.346;2022-09-03T00:00:48;18.50;55.50
15844;DHT22;50807;52.436;13.346;2022-09-03T00:01:27;18.50;55.60
15844;DHT22;50807;52.436;13.346;2022-09-03T00:02:13;18.50;55.70
15844;DHT22;50807;52.436;13.346;2022-09-03T00:02:52;18.50;55.70
15844;DHT22;50807;52.436;13.346;2022-09-03T00:03:33;18.50;55.80
15844;DHT22;50807;52.436;13.346;2022-09-03T00:04:13;18.40;55.80
15844;DHT22;50807;52.436;13.346;2022-09-03T00:04:54;18.40;55.80
15844;DHT22;50807;52.436;13.346;2022-09-03T00:05:36;18.40;55.90
15844;DHT22;50807;52.436;13.346;2022-09-03T00:06:14;18.40;55.90
15844;DHT22;50807;52.436;13.346;2022-09-03T00:06:54;18.40;55.90
15844;DHT22;50807;52.436;13.346;2022-09-03T00:07:38;18.40;56.00
15844;DHT22;50807;52.436;13.346;2022-09-03T00:08:20;18.40;56.00
15844;DHT22;50807;52.436;13.346;2022-09-03T00:09:00;18.40;56.00
15844;DHT22;50807;52.436;13.346;2022-09-03T00:09:39;18.30;56.10
15844;DHT22;50807;52.436;13.346;2022-09-03T00:10:18;18.30;56.70
15844;DHT22;50807;52.436;13.346;2022-09-03T00:10:56;18.30;56.20
15844;DHT22;50807;52.436;13.346;2022-09-03T00:11:36;18.30;56.20
15844;DHT22;50807;52.436;13.346;2022-09-03T00:12:14;18.30;56.20
15844;DHT22;50807;52.436;13.346;2022-09-03T00:12:50;18.30;56.20
15844;DHT22;50807;52.436;13.346;2022-09-03T00:13:29;18.30;56.30
15844;DHT22;50807;52.436;13.346;2022-09-03T00:14:08;18.30;56.30
15844;DHT22;50807;52.436;13.346;2022-09-03T00:14:49;18.30;56.40
15844;DHT22;50807;52.436;13.346;2022-09-03T00:15:23;18.30;56.40
15844;DHT22;50807;52.436;13.346;2022-09-03T00:15:56;18.30;56.40
15844;DHT22;50807;52.436;13.346;2022-09-03T00:16:35;18.30;56.40
15844;DHT22;50807;52.436;13.346;2022-09-03T00:17:16;18.20;56.50
15844;DHT22;50807;52.436;13.346;2022-09-03T00:17:54;18.30;56.50
15844;DHT22;50807;52.436;13.346;2022-09-03T00:18:31;18.20;56.50
15844;DHT22;50807;52.436;13.346;2022-09-03T00:19:04;18.20;56.50
15844;DHT22;50807;52.436;13.346;2022-09-03T00:19:39;18.20;56.50
15844;DHT22;50807;52.436;13.346;2022-09-03T00:20:16;18.20;56.70
15844;DHT22;50807;52.436;13.346;2022-09-03T00:20:54;18.20;57.20
15844;DHT22;50807;52.436;13.346;2022-09-03T00:21:36;18.20;56.60
15844;DHT22;50807;52.436;13.346;2022-09-03T00:22:12;18.20;56.60
15844;DHT22;50807;52.436;13.346;2022-09-03T00:22:49;18.20;56.60
15844;DHT22;50807;52.436;13.346;2022-09-03T00:23:25;18.20;56.70
15844;DHT22;50807;52.436;13.346;2022-09-03T00:23:59;18.20;56.70
15844;DHT22;50807;52.436;13.346;2022-09-03T00:24:37;18.20;56.70
15844;DHT22;50807;52.436;13.346;2022-09-03T00:25:12;18.20;56.80
15844;DHT22;50807;52.436;13.346;2022-09-03T00:25:51;18.10;56.70
15844;DHT22;50807;52.436;13.346;2022-09-03T00:26:29;18.10;56.70
15844;DHT22;50807;52.436;13.346;2022-09-03T00:27:10;18.10;56.80
15844;DHT22;50807;52.436;13.346;2022-09-03T00:27:50;18.10;56.80
15844;DHT22;50807;52.436;13.346;2022-09-03T00:28:27;18.10;56.80
15844;DHT22;50807;52.436;13.346;2022-09-03T00:29:08;18.10;56.80
15844;DHT22;50807;52.436;13.346;2022-09-03T00:29:48;18.10;56.90
15844;DHT22;50807;52.436;13.346;2022-09-03T00:30:22;18.10;56.90
15844;DHT22;50807;52.436;13.346;2022-09-03T00:31:02;18.10;56.80
15844;DHT22;50807;52.436;13.346;2022-09-03T00:31:40;18.10;56.90
15844;DHT22;50807;52.436;13.346;2022-09-03T00:32:20;18.10;56.90
15844;DHT22;50807;52.436;13.346;2022-09-03T00:32:59;18.10;56.90
15844;DHT22;50807;52.436;13.346;2022-09-03T00:33:40;18.10;56.90
15844;DHT22;50807;52.436;13.346;2022-09-03T00:34:18;18.10;56.90
15844;DHT22;50807;52.436;13.346;2022-09-03T00:34:56;18.10;57.00
15844;DHT22;50807;52.436;13.346;2022-09-03T00:35:33;18.10;57.00
15844;DHT22;50807;52.436;13.346;2022-09-03T00:36:14;18.10;57.00
15844;DHT22;50807;52.436;13.346;2022-09-03T00:36:48;18.10;57.00
15844;DHT22;50807;52.436;13.346;2022-09-03T00:37:19;18.10;57.00
15844;DHT22;50807;52.436;13.346;2022-09-03T00:37:51;18.10;57.10
15844;DHT22;50807;52.436;13.346;2022-09-03T00:38:23;18.10;57.10
15844;DHT22;50807;52.436;13.346;2022-09-03T00:38:54;18.10;57.20
15844;DHT22;50807;52.436;13.346;2022-09-03T00:39:27;18.00;57.20
15844;DHT22;50807;52.436;13.346;2022-09-03T00:39:58;18.00;57.20
15844;DHT22;50807;52.436;13.346;2022-09-03T00:41:04;18.00;57.30
15844;DHT22;50807;52.436;13.346;2022-09-03T00:41:49;18.00;57.30
15844;DHT22;50807;52.436;13.346;2022-09-03T00:42:38;18.00;57.30
15844;DHT22;50807;52.436;13.346;2022-09-03T00:43:24;18.00;57.20
15844;DHT22;50807;52.436;13.346;2022-09-03T00:44:30;18.00;57.20
15844;DHT22;50807;52.436;13.346;2022-09-03T00:45:20;18.00;57.20
15844;DHT22;50807;52.436;13.346;2022-09-03T00:46:04;18.00;57.10
15844;DHT22;50807;52.436;13.346;2022-09-03T00:46:48;18.00;57.10
15844;DHT22;50807;52.436;13.346;2022-09-03T00:47:39;18.00;57.10
15844;DHT22;50807;52.436;13.346;2022-09-03T00:48:21;18.00;57.20
15844;DHT22;50807;52.436;13.346;2022-09-03T00:49:14;18.00;57.10
15844;DHT22;50807;52.436;13.346;2022-09-03T00:50:03;18.00;57.20
15844;DHT22;50807;52.436;13.346;2022-09-03T00:50:48;18.00;57.20
15844;DHT22;50807;52.436;13.346;2022-09-03T00:51:36;18.00;57.20
15844;DHT22;50807;52.436;13.346;2022-09-03T00:52:21;18.00;57.20
15844;DHT22;50807;52.436;13.346;2022-09-03T00:53:14;18.00;57.20
15844;DHT22;50807;52.436;13.346;2022-09-03T00:53:59;18.00;57.30
15844;DHT22;50807;52.436;13.346;2022-09-03T00:54:45;18.00;57.30
15844;DHT22;50807;52.436;13.346;2022-09-03T00:55:33;17.90;57.30
15844;DHT22;50807;52.436;13.346;2022-09-03T00:56:16;17.90;57.30
15844;DHT22;50807;52.436;13.346;2022-09-03T00:57:15;17.90;57.30
15844;DHT22;50807;52.436;13.346;2022-09-03T00:58:05;17.90;57.40
15844;DHT22;50807;52.436;13.346;2022-09-03T00:59:00;17.90;57.40
15844;DHT22;50807;52.436;13.346;2022-09-03T00:59:44;17.90;57.40
15844;DHT22;50807;52.436;13.346;2022-09-03T01:00:28;17.90;57.40
15844;DHT22;50807;52.436;13.346;2022-09-03T01:01:06;17.90;57.40
15844;DHT22;50807;52.436;13.346;2022-09-03T01:01:47;17.90;57.40
15844;DHT22;50807;52.436;13.346;2022-09-03T01:02:32;17.80;57.50
15844;DHT22;50807;52.436;13.346;2022-09-03T01:03:22;17.80;57.50
15844;DHT22;50807;52.436;13.346;2022-09-03T01:04:11;17.80;57.50
15844;DHT22;50807;52.436;13.346;2022-09-03T01:05:01;17.80;57.60
15844;DHT22;50807;52.436;13.346;2022-09-03T01:05:54;17.80;57.60
15844;DHT22;50807;52.436;13.346;2022-09-03T01:06:39;17.80;57.60
15844;DHT22;50807;52.436;13.346;2022-09-03T01:07:22;17.80;57.60
15844;DHT22;50807;52.436;13.346;2022-09-03T01:08:13;17.80;57.60
15844;DHT22;50807;52.436;13.346;2022-09-03T01:09:08;17.80;57.60
15844;DHT22;50807;52.436;13.346;2022-09-03T01:09:57;17.80;57.70
15844;DHT22;50807;52.436;13.346;2022-09-03T01:10:48;17.80;57.70
15844;DHT22;50807;52.436;13.346;2022-09-03T01:11:31;17.80;57.70
15844;DHT22;50807;52.436;13.346;2022-09-03T01:12:21;17.70;57.70
15844;DHT22;50807;52.436;13.346;2022-09-03T01:13:07;17.70;57.70
15844;DHT22;50807;52.436;13.346;2022-09-03T01:13:50;17.70;57.70
15844;DHT22;50807;52.436;13.346;2022-09-03T01:14:38;17.70;57.80
15844;DHT22;50807;52.436;13.346;2022-09-03T01:15:23;17.70;57.80
15844;DHT22;50807;52.436;13.346;2022-09-03T01:16:08;17.70;57.80
15844;DHT22;50807;52.436;13.346;2022-09-03T01:16:51;17.70;57.80
15844;DHT22;50807;52.436;13.346;2022-09-03T01:17:39;17.70;57.90
15844;DHT22;50807;52.436;13.346;2022-09-03T01:18:24;17.70;58.00
15844;DHT22;50807;52.436;13.346;2022-09-03T01:19:12;17.60;57.90
15844;DHT22;50807;52.436;13.346;2022-09-03T01:20:19;17.60;57.90
15844;DHT22;50807;52.436;13.346;2022-09-03T01:21:14;17.60;58.00
15844;DHT22;50807;52.436;13.346;2022-09-03T01:22:13;17.60;58.00
15844;DHT22;50807;52.436;13.346;2022-09-03T01:23:26;17.60;58.00
15844;DHT22;50807;52.436;13.346;2022-09-03T01:24:45;17.60;58.00
15844;DHT22;50807;52.436;13.346;2022-09-03T01:25:45;17.60;57.90
15844;DHT22;50807;52.436;13.346;2022-09-03T01:26:44;17.60;57.80
15844;DHT22;50807;52.436;13.346;2022-09-03T01:27:35;17.60;57.90
15844;DHT22;50807;52.436;13.346;2022-09-03T01:28:29;17.60;57.90
15844;DHT22;50807;52.436;13.346;2022-09-03T01:29:17;17.60;58.00
15844;DHT22;50807;52.436;13.346;2022-09-03T01:30:02;17.60;57.90
15844;DHT22;50807;52.436;13.346;2022-09-03T01:30:38;17.60;58.00
15844;DHT22;50807;52.436;13.346;2022-09-03T01:31:17;17.60;58.10
15844;DHT22;50807;52.436;13.346;2022-09-03T01:32:04;17.50;58.20
15844;DHT22;50807;52.436;13.346;2022-09-03T01:32:44;17.50;58.20
15844;DHT22;50807;52.436;13.346;2022-09-03T01:33:24;17.50;58.30
15844;DHT22;50807;52.436;13.346;2022-09-03T01:34:09;17.50;58.30
15844;DHT22;50807;52.436;13.346;2022-09-03T01:34:53;17.50;58.40
15844;DHT22;50807;52.436;13.346;2022-09-03T01:35:35;17.50;58.40
15844;DHT22;50807;52.436;13.346;2022-09-03T01:36:15;17.50;58.50
15844;DHT22;50807;52.436;13.346;2022-09-03T01:37:00;17.40;58.50
15844;DHT22;50807;52.436;13.346;2022-09-03T01:37:51;17.40;58.50
15844;DHT22;50807;52.436;13.346;2022-09-03T01:38:35;17.40;58.60
15844;DHT22;50807;52.436;13.346;2022-09-03T01:39:16;17.40;58.60
15844;DHT22;50807;52.436;13.346;2022-09-03T01:40:02;17.40;58.60
15844;DHT22;50807;52.436;13.346;2022-09-03T01:40:46;17.40;58.70
15844;DHT22;50807;52.436;13.346;2022-09-03T01:41:32;17.40;58.70
15844;DHT22;50807;52.436;13.346;2022-09-03T01:42:37;17.40;58.80
15844;DHT22;50807;52.436;13.346;2022-09-03T01:43:31;17.40;58.70
15844;DHT22;50807;52.436;13.346;2022-09-03T01:44:13;17.40;58.80
15844;DHT22;50807;52.436;13.346;2022-09-03T01:45:15;17.40;58.70
15844;DHT22;50807;52.436;13.346;2022-09-03T01:46:03;17.40;58.90
15844;DHT22;50807;52.436;13.346;2022-09-03T01:46:39;17.40;58.70
15844;DHT22;50807;52.436;13.346;2022-09-03T01:47:17;17.40;58.80
15844;DHT22;50807;52.436;13.346;2022-09-03T01:48:11;17.40;58.90
15844;DHT22;50807;52.436;13.346;2022-09-03T01:48:54;17.40;58.90
15844;DHT22;50807;52.436;13.346;2022-09-03T01:49:40;17.30;58.80
15844;DHT22;50807;52.436;13.346;2022-09-03T01:50:29;17.40;58.90
15844;DHT22;50807;52.436;13.346;2022-09-03T01:51:17;17.40;59.00
15844;DHT22;50807;52.436;13.346;2022-09-03T01:51:54;17.40;59.00
15844;DHT22;50807;52.436;13.346;2022-09-03T01:52:42;17.30;58.90
15844;DHT22;50807;52.436;13.346;2022-09-03T01:53:30;17.30;59.00
15844;DHT22;50807;52.436;13.346;2022-09-03T01:55:29;17.30;59.10
15844;DHT22;50807;52.436;13.346;2022-09-03T01:56:14;17.30;59.00
15844;DHT22;50807;52.436;13.346;2022-09-03T01:57:13;17.30;59.00
15844;DHT22;50807;52.436;13.346;2022-09-03T01:57:57;17.30;59.10
15844;DHT22;50807;52.436;13.346;2022-09-03T01:58:36;17.30;59.00
15844;DHT22;50807;52.436;13.346;2022-09-03T01:59:16;17.30;59.10
15844;DHT22;50807;52.436;13.346;2022-09-03T01:59:55;17.30;59.10
15844;DHT22;50807;52.436;13.346;2022-09-03T02:00:32;17.30;59.20
15844;DHT22;50807;52.436;13.346;2022-09-03T02:01:11;17.30;59.20
15844;DHT22;50807;52.436;13.346;2022-09-03T02:01:52;17.30;59.30
15844;DHT22;50807;52.436;13.346;2022-09-03T02:02:28;17.30;59.30
15844;DHT22;50807;52.436;13.346;2022-09-03T02:03:04;17.30;59.30
15844;DHT22;50807;52.436;13.346;2022-09-03T02:03:40;17.20;59.30
15844;DHT22;50807;52.436;13.346;2022-09-03T02:04:18;17.20;59.40
15844;DHT22;50807;52.436;13.346;2022-09-03T02:04:59;17.20;59.40
15844;DHT22;50807;52.436;13.346;2022-09-03T02:05:32;17.20;59.50
15844;DHT22;50807;52.436;13.346;2022-09-03T02:06:05;17.20;59.40
15844;DHT22;50807;52.436;13.346;2022-09-03T02:06:37;17.20;59.50
15844;DHT22;50807;52.436;13.346;2022-09-03T02:07:08;17.20;59.60
15844;DHT22;50807;52.436;13.346;2022-09-03T02:07:43;17.20;59.70
15844;DHT22;50807;52.436;13.346;2022-09-03T02:08:15;17.20;59.70
15844;DHT22;50807;52.436;13.346;2022-09-03T02:08:46;17.20;59.70
15844;DHT22;50807;52.436;13.346;2022-09-03T02:09:19;17.20;59.80
15844;DHT22;50807;52.436;13.346;2022-09-03T02:09:50;17.20;59.90
15844;DHT22;50807;52.436;13.346;2022-09-03T02:10:24;17.20;59.90
15844;DHT22;50807;52.436;13.346;2022-09-03T02:11:00;17.20;59.90
15844;DHT22;50807;52.436;13.346;2022-09-03T02:11:32;17.10;59.80
15844;DHT22;50807;52.436;13.346;2022-09-03T02:12:07;17.10;59.90
15844;DHT22;50807;52.436;13.346;2022-09-03T02:12:48;17.10;60.70
15844;DHT22;50807;52.436;13.346;2022-09-03T02:13:23;17.10;60.00
15844;DHT22;50807;52.436;13.346;2022-09-03T02:13:59;17.10;60.00
15844;DHT22;50807;52.436;13.346;2022-09-03T02:14:30;17.10;60.00
15844;DHT22;50807;52.436;13.346;2022-09-03T02:15:06;17.10;60.00
15844;DHT22;50807;52.436;13.346;2022-09-03T02:15:44;17.10;60.00
15844;DHT22;50807;52.436;13.346;2022-09-03T02:16:18;17.10;60.00
15844;DHT22;50807;52.436;13.346;2022-09-03T02:16:51;17.10;60.10
15844;DHT22;50807;52.436;13.346;2022-09-03T02:17:24;17.10;60.10
15844;DHT22;50807;52.436;13.346;2022-09-03T02:17:58;17.10;60.10
15844;DHT22;50807;52.436;13.346;2022-09-03T02:18:36;17.10;60.20
15844;DHT22;50807;52.436;13.346;2022-09-03T02:19:14;17.10;60.20
15844;DHT22;50807;52.436;13.346;2022-09-03T02:19:46;17.10;60.20
15844;DHT22;50807;52.436;13.346;2022-09-03T02:20:19;17.10;60.20
15844;DHT22;50807;52.436;13.346;2022-09-03T02:20:53;17.10;60.20
15844;DHT22;50807;52.436;13.346;2022-09-03T02:21:28;17.10;60.20
15844;DHT22;50807;52.436;13.346;2022-09-03T02:22:04;17.10;60.30
15844;DHT22;50807;52.436;13.346;2022-09-03T02:22:37;17.10;60.20
15844;DHT22;50807;52.436;13.346;2022-09-03T02:23:08;17.10;60.30
15844;DHT22;50807;52.436;13.346;2022-09-03T02:23:41;17.10;60.30
15844;DHT22;50807;52.436;13.346;2022-09-03T02:24:13;17.10;60.30
15844;DHT22;50807;52.436;13.346;2022-09-03T02:24:43;17.10;60.40
15844;DHT22;50807;52.436;13.346;2022-09-03T02:25:15;17.10;60.40
15844;DHT22;50807;52.436;13.346;2022-09-03T02:25:54;17.10;60.40
15844;DHT22;50807;52.436;13.346;2022-09-03T02:26:27;17.10;60.50
15844;DHT22;50807;52.436;13.346;2022-09-03T02:26:57;17.10;60.50
15844;DHT22;50807;52.436;13.346;2022-09-03T02:27:30;17.10;60.50
15844;DHT22;50807;52.436;13.346;2022-09-03T02:28:02;17.10;60.60
15844;DHT22;50807;52.436;13.346;2022-09-03T02:28:35;17.10;60.70
15844;DHT22;50807;52.436;13.346;2022-09-03T02:29:07;17.10;60.60
15844;DHT22;50807;52.436;13.346;2022-09-03T02:29:41;17.10;60.70
15844;DHT22;50807;52.436;13.346;2022-09-03T02:30:12;17.10;60.70
15844;DHT22;50807;52.436;13.346;2022-09-03T02:30:43;17.00;60.60
15844;DHT22;50807;52.436;13.346;2022-09-03T02:31:15;17.00;60.70
15844;DHT22;50807;52.436;13.346;2022-09-03T02:31:46;17.00;60.70
15844;DHT22;50807;52.436;13.346;2022-09-03T02:32:17;17.00;60.70
15844;DHT22;50807;52.436;13.346;2022-09-03T02:32:49;17.00;60.80
15844;DHT22;50807;52.436;13.346;2022-09-03T02:33:19;17.00;60.80
15844;DHT22;50807;52.436;13.346;2022-09-03T02:33:50;17.00;60.80
15844;DHT22;50807;52.436;13.346;2022-09-03T02:34:22;17.00;60.80
15844;DHT22;50807;52.436;13.346;2022-09-03T02:34:53;17.00;60.90
15844;DHT22;50807;52.436;13.346;2022-09-03T02:35:24;17.00;60.90
15844;DHT22;50807;52.436;13.346;2022-09-03T02:35:55;17.00;60.90
15844;DHT22;50807;52.436;13.346;2022-09-03T02:36:30;17.00;61.00
15844;DHT22;50807;52.436;13.346;2022-09-03T02:37:11;17.00;61.00
15844;DHT22;50807;52.436;13.346;2022-09-03T02:37:44;17.00;61.10
15844;DHT22;50807;52.436;13.346;2022-09-03T02:38:17;17.00;60.90
15844;DHT22;50807;52.436;13.346;2022-09-03T02:38:50;17.00;61.00
15844;DHT22;50807;52.436;13.346;2022-09-03T02:39:21;17.00;61.00
15844;DHT22;50807;52.436;13.346;2022-09-03T02:39:52;17.00;61.00
15844;DHT22;50807;52.436;13.346;2022-09-03T02:40:23;17.00;61.00
15844;DHT22;50807;52.436;13.346;2022-09-03T02:40:54;17.00;61.00
15844;DHT22;50807;52.436;13.346;2022-09-03T02:41:25;17.00;61.10
15844;DHT22;50807;52.436;13.346;2022-09-03T02:41:57;17.00;61.10
15844;DHT22;50807;52.436;13.346;2022-09-03T02:42:30;17.00;61.20
15844;DHT22;50807;52.436;13.346;2022-09-03T02:43:02;16.90;61.00
15844;DHT22;50807;52.436;13.346;2022-09-03T02:43:39;16.90;61.20
15844;DHT22;50807;52.436;13.346;2022-09-03T02:44:18;16.90;61.20
15844;DHT22;50807;52.436;13.346;2022-09-03T02:45:00;16.90;61.20
15844;DHT22;50807;52.436;13.346;2022-09-03T02:45:46;16.90;61.20
15844;DHT22;50807;52.436;13.346;2022-09-03T02:46:22;16.90;61.10
15844;DHT22;50807;52.436;13.346;2022-09-03T02:46:58;16.90;61.10
15844;DHT22;50807;52.436;13.346;2022-09-03T02:47:33;16.90;61.10
15844;DHT22;50807;52.436;13.346;2022-09-03T02:48:08;16.90;61.10
15844;DHT22;50807;52.436;13.346;2022-09-03T02:48:40;16.90;61.10
15844;DHT22;50807;52.436;13.346;2022-09-03T02:49:12;16.90;61.10
15844;DHT22;50807;52.436;13.346;2022-09-03T02:49:43;16.90;61.20
15844;DHT22;50807;52.436;13.346;2022-09-03T02:50:16;16.90;61.20
15844;DHT22;50807;52.436;13.346;2022-09-03T02:50:47;16.90;61.20
15844;DHT22;50807;52.436;13.346;2022-09-03T02:51:18;16.90;61.20
15844;DHT22;50807;52.436;13.346;2022-09-03T02:51:49;16.90;61.20
15844;DHT22;50807;52.436;13.346;2022-09-03T02:52:20;16.80;61.20
15844;DHT22;50807;52.436;13.346;2022-09-03T02:52:52;16.90;61.30
15844;DHT22;50807;52.436;13.346;2022-09-03T02:53:22;16.80;61.30
15844;DHT22;50807;52.436;13.346;2022-09-03T02:53:53;16.80;61.30
15844;DHT22;50807;52.436;13.346;2022-09-03T02:54:25;16.80;61.40
15844;DHT22;50807;52.436;13.346;2022-09-03T02:54:56;16.80;61.40
15844;DHT22;50807;52.436;13.346;2022-09-03T02:55:27;16.80;61.40
15844;DHT22;50807;52.436;13.346;2022-09-03T02:55:59;16.80;61.40
15844;DHT22;50807;52.436;13.346;2022-09-03T02:56:31;16.80;61.50
15844;DHT22;50807;52.436;13.346;2022-09-03T02:57:02;16.80;61.50
15844;DHT22;50807;52.436;13.346;2022-09-03T02:57:34;16.80;61.60
15844;DHT22;50807;52.436;13.346;2022-09-03T02:58:05;16.80;61.60
15844;DHT22;50807;52.436;13.346;2022-09-03T02:58:36;16.80;61.60
15844;DHT22;50807;52.436;13.346;2022-09-03T02:59:08;16.80;61.60
15844;DHT22;50807;52.436;13.346;2022-09-03T02:59:41;16.80;61.70
15844;DHT22;50807;52.436;13.346;2022-09-03T03:00:14;16.80;61.70
15844;DHT22;50807;52.436;13.346;2022-09-03T03:00:45;16.70;61.70
15844;DHT22;50807;52.436;13.346;2022-09-03T03:01:18;16.70;61.70
15844;DHT22;50807;52.436;13.346;2022-09-03T03:01:49;16.70;61.70
15844;DHT22;50807;52.436;13.346;2022-09-03T03:02:20;16.70;61.70
15844;DHT22;50807;52.436;13.346;2022-09-03T03:02:51;16.70;61.80
15844;DHT22;50807;52.436;13.346;2022-09-03T03:03:25;16.70;61.80
15844;DHT22;50807;52.436;13.346;2022-09-03T03:03:56;16.70;61.80
15844;DHT22;50807;52.436;13.346;2022-09-03T03:04:29;16.70;61.80
15844;DHT22;50807;52.436;13.346;2022-09-03T03:05:00;16.70;61.90
15844;DHT22;50807;52.436;13.346;2022-09-03T03:05:41;16.70;61.90
15844;DHT22;50807;52.436;13.346;2022-09-03T03:06:15;16.70;62.00
15844;DHT22;50807;52.436;13.346;2022-09-03T03:06:45;16.70;61.90
15844;DHT22;50807;52.436;13.346;2022-09-03T03:07:16;16.70;61.90
15844;DHT22;50807;52.436;13.346;2022-09-03T03:07:48;16.70;61.90
15844;DHT22;50807;52.436;13.346;2022-09-03T03:08:19;16.70;61.90
15844;DHT22;50807;52.436;13.346;2022-09-03T03:08:54;16.70;62.00
15844;DHT22;50807;52.436;13.346;2022-09-03T03:09:27;16.70;62.00
15844;DHT22;50807;52.436;13.346;2022-09-03T03:09:58;16.70;62.00
15844;DHT22;50807;52.436;13.346;2022-09-03T03:10:29;16.70;62.00
15844;DHT22;50807;52.436;13.346;2022-09-03T03:11:00;16.70;62.00
15844;DHT22;50807;52.436;13.346;2022-09-03T03:11:32;16.70;62.10
15844;DHT22;50807;52.436;13.346;2022-09-03T03:12:04;16.60;62.00
15844;DHT22;50807;52.436;13.346;2022-09-03T03:12:34;16.60;62.10
15844;DHT22;50807;52.436;13.346;2022-09-03T03:13:07;16.60;62.10
15844;DHT22;50807;52.436;13.346;2022-09-03T03:13:37;16.60;62.10
15844;DHT22;50807;52.436;13.346;2022-09-03T03:14:09;16.60;62.10
15844;DHT22;50807;52.436;13.346;2022-09-03T03:14:42;16.60;62.10
15844;DHT22;50807;52.436;13.346;2022-09-03T03:15:13;16.60;62.20
15844;DHT22;50807;52.436;13.346;2022-09-03T03:15:44;16.60;62.20
15844;DHT22;50807;52.436;13.346;2022-09-03T03:16:17;16.60;62.20
15844;DHT22;50807;52.436;13.346;2022-09-03T03:16:48;16.60;62.20
15844;DHT22;50807;52.436;13.346;2022-09-03T03:17:20;16.60;62.30
15844;DHT22;50807;52.436;13.346;2022-09-03T03:17:51;16.60;62.30
15844;DHT22;50807;52.436;13.346;2022-09-03T03:18:22;16.60;62.40
15844;DHT22;50807;52.436;13.346;2022-09-03T03:18:55;16.60;62.40
15844;DHT22;50807;52.436;13.346;2022-09-03T03:19:25;16.60;62.40
15844;DHT22;50807;52.436;13.346;2022-09-03T03:19:56;16.60;62.40
15844;DHT22;50807;52.436;13.346;2022-09-03T03:20:28;16.60;62.40
15844;DHT22;50807;52.436;13.346;2022-09-03T03:21:03;16.60;62.40
15844;DHT22;50807;52.436;13.346;2022-09-03T03:21:34;16.60;62.50
15844;DHT22;50807;52.436;13.346;2022-09-03T03:22:06;16.50;63.00
15844;DHT22;50807;52.436;13.346;2022-09-03T03:22:37;16.50;62.40
15844;DHT22;50807;52.436;13.346;2022-09-03T03:23:08;16.50;62.50
15844;DHT22;50807;52.436;13.346;2022-09-03T03:23:41;16.50;62.50
15844;DHT22;50807;52.436;13.346;2022-09-03T03:24:12;16.50;62.50
15844;DHT22;50807;52.436;13.346;2022-09-03T03:24:43;16.50;62.50
15844;DHT22;50807;52.436;13.346;2022-09-03T03:25:15;16.50;62.60
15844;DHT22;50807;52.436;13.346;2022-09-03T03:25:46;16.50;62.60
15844;DHT22;50807;52.436;13.346;2022-09-03T03:26:18;16.50;62.60
15844;DHT22;50807;52.436;13.346;2022-09-03T03:26:54;16.50;62.70
15844;DHT22;50807;52.436;13.346;2022-09-03T03:27:27;16.50;62.70
15844;DHT22;50807;52.436;13.346;2022-09-03T03:27:58;16.50;62.60
15844;DHT22;50807;52.436;13.346;2022-09-03T03:28:29;16.50;62.70
15844;DHT22;50807;52.436;13.346;2022-09-03T03:29:03;16.50;62.80
15844;DHT22;50807;52.436;13.346;2022-09-03T03:29:34;16.50;62.70
15844;DHT22;50807;52.436;13.346;2022-09-03T03:30:09;16.50;62.70
15844;DHT22;50807;52.436;13.346;2022-09-03T03:30:40;16.50;62.80
15844;DHT22;50807;52.436;13.346;2022-09-03T03:31:14;16.50;62.80
15844;DHT22;50807;52.436;13.346;2022-09-03T03:31:46;16.50;62.80
15844;DHT22;50807;52.436;13.346;2022-09-03T03:32:17;16.50;62.80
15844;DHT22;50807;52.436;13.346;2022-09-03T03:32:48;16.50;62.80
15844;DHT22;50807;52.436;13.346;2022-09-03T03:33:19;16.40;62.80
15844;DHT22;50807;52.436;13.346;2022-09-03T03:33:50;16.40;62.90
15844;DHT22;50807;52.436;13.346;2022-09-03T03:34:23;16.50;63.00
15844;DHT22;50807;52.436;13.346;2022-09-03T03:34:54;16.40;62.90
15844;DHT22;50807;52.436;13.346;2022-09-03T03:35:25;16.40;62.90
15844;DHT22;50807;52.436;13.346;2022-09-03T03:35:56;16.40;62.90
15844;DHT22;50807;52.436;13.346;2022-09-03T03:36:28;16.40;63.00
15844;DHT22;50807;52.436;13.346;2022-09-03T03:37:01;16.40;63.00
15844;DHT22;50807;52.436;13.346;2022-09-03T03:37:32;16.40;63.00
15844;DHT22;50807;52.436;13.346;2022-09-03T03:38:04;16.40;63.10
15844;DHT22;50807;52.436;13.346;2022-09-03T03:38:36;16.40;63.10
15844;DHT22;50807;52.436;13.346;2022-09-03T03:39:08;16.40;63.10
15844;DHT22;50807;52.436;13.346;2022-09-03T03:39:38;16.40;63.10
15844;DHT22;50807;52.436;13.346;2022-09-03T03:40:10;16.40;63.10
15844;DHT22;50807;52.436;13.346;2022-09-03T03:40:42;16.40;63.20
15844;DHT22;50807;52.436;13.346;2022-09-03T03:41:15;16.40;63.20
15844;DHT22;50807;52.436;13.346;2022-09-03T03:41:47;16.40;63.20
15844;DHT22;50807;52.436;13.346;2022-09-03T03:42:19;16.40;63.20
15844;DHT22;50807;52.436;13.346;2022-09-03T03:42:49;16.40;63.20
15844;DHT22;50807;52.436;13.346;2022-09-03T03:43:20;16.40;63.20
15844;DHT22;50807;52.436;13.346;2022-09-03T03:43:52;16.40;63.40
15844;DHT22;50807;52.436;13.346;2022-09-03T03:44:24;16.40;63.30
15844;DHT22;50807;52.436;13.346;2022-09-03T03:44:55;16.40;63.30
15844;DHT22;50807;52.436;13.346;2022-09-03T03:45:28;16.40;63.30
15844;DHT22;50807;52.436;13.346;2022-09-03T03:45:59;16.40;63.30
15844;DHT22;50807;52.436;13.346;2022-09-03T03:46:31;16.40;63.30
15844;DHT22;50807;52.436;13.346;2022-09-03T03:47:04;16.40;63.40
15844;DHT22;50807;52.436;13.346;2022-09-03T03:47:35;16.40;63.30
15844;DHT22;50807;52.436;13.346;2022-09-03T03:48:06;16.40;63.40
15844;DHT22;50807;52.436;13.346;2022-09-03T03:48:38;16.40;63.40
15844;DHT22;50807;52.436;13.346;2022-09-03T03:49:09;16.40;63.40
15844;DHT22;50807;52.436;13.346;2022-09-03T03:49:40;16.40;63.40
15844;DHT22;50807;52.436;13.346;2022-09-03T03:50:12;16.40;63.40
15844;DHT22;50807;52.436;13.346;2022-09-03T03:50:42;16.40;63.40
15844;DHT22;50807;52.436;13.346;2022-09-03T03:51:13;16.40;63.40
15844;DHT22;50807;52.436;13.346;2022-09-03T03:51:44;16.40;63.50
15844;DHT22;50807;52.436;13.346;2022-09-03T03:52:16;16.40;63.50
15844;DHT22;50807;52.436;13.346;2022-09-03T03:52:47;16.40;63.50
15844;DHT22;50807;52.436;13.346;2022-09-03T03:53:18;16.40;63.50
15844;DHT22;50807;52.436;13.346;2022-09-03T03:53:53;16.40;63.50
15844;DHT22;50807;52.436;13.346;2022-09-03T03:54:26;16.40;63.60
15844;DHT22;50807;52.436;13.346;2022-09-03T03:54:56;16.40;63.50